createdAt,value
2022-09-18T00:01:18.231Z,49.85
2022-09-18T00:03:47.299Z,51.10
2022-09-18T00:06:17.837Z,49.72
2022-09-18T00:08:45.942Z,48.00
2022-09-18T00:11:15.180Z,47.72
2022-09-18T00:13:47.185Z,51.25
2022-09-18T00:16:15.903Z,44.80
2022-09-18T00:18:44.045Z,42.22
2022-09-18T00:21:24.640Z,39.30
2022-09-18T00:23:55.005Z,44.10
2022-09-18T00:26:22.548Z,40.53
2022-09-18T00:28:49.810Z,37.45
2022-09-18T00:31:19.432Z,40.95
2022-09-18T00:33:47.023Z,43.53
2022-09-18T00:36:16.605Z,45.53
2022-09-18T00:38:45.574Z,44.30
2022-09-18T00:41:25.263Z,45.38
2022-09-18T00:43:54.557Z,40.38
2022-09-18T00:46:27.006Z,41.38
2022-09-18T00:49:14.385Z,40.10
2022-09-18T00:51:42.150Z,43.13
2022-09-18T00:54:19.932Z,40.75
2022-09-18T00:56:49.166Z,42.83
2022-09-18T00:59:21.395Z,45.95
2022-09-18T01:01:48.934Z,43.70
2022-09-18T01:04:16.232Z,41.17
2022-09-18T01:07:06.399Z,45.05
2022-09-18T01:10:11.405Z,43.67
2022-09-18T01:12:46.879Z,41.65
2022-09-18T01:15:35.032Z,40.92
2022-09-18T01:18:15.376Z,38.00
2022-09-18T01:21:20.185Z,41.78
2022-09-18T01:24:28.362Z,44.63
2022-09-18T01:27:02.122Z,41.13
2022-09-18T01:29:50.187Z,41.67
2022-09-18T01:32:47.747Z,43.58
2022-09-18T01:35:40.560Z,43.92
2022-09-18T01:38:25.448Z,41.15
2022-09-18T01:40:55.421Z,37.03
2022-09-18T01:43:25.027Z,44.22
2022-09-18T01:45:54.967Z,40.00
2022-09-18T01:48:34.412Z,39.83
2022-09-18T01:51:08.149Z,41.58
2022-09-18T01:53:41.851Z,37.45
2022-09-18T01:56:36.420Z,39.92
2022-09-18T01:59:09.019Z,37.80
2022-09-18T02:01:38.062Z,38.08
2022-09-18T02:04:11.782Z,45.45
2022-09-18T02:06:47.046Z,36.08
2022-09-18T02:09:14.340Z,36.22
2022-09-18T02:11:45.194Z,33.30
2022-09-18T02:14:16.893Z,41.90
2022-09-18T02:17:10.148Z,37.70
2022-09-18T02:19:43.331Z,43.25
2022-09-18T02:22:14.042Z,37.08
2022-09-18T02:24:44.864Z,34.85
2022-09-18T02:27:14.172Z,38.67
2022-09-18T02:29:43.113Z,38.08
2022-09-18T02:32:10.436Z,39.28
2022-09-18T02:34:37.674Z,36.08
2022-09-18T02:37:21.426Z,35.92
2022-09-18T02:40:24.116Z,38.03
2022-09-18T02:43:09.141Z,36.90
2022-09-18T02:45:58.174Z,33.17
2022-09-18T02:48:31.115Z,37.55
2022-09-18T02:51:07.291Z,40.28
2022-09-18T02:53:57.921Z,36.20
2022-09-18T02:56:25.083Z,34.22
2022-09-18T02:58:59.208Z,34.92
2022-09-18T03:01:27.609Z,34.95
2022-09-18T03:03:54.942Z,37.08
2022-09-18T03:06:24.830Z,31.70
2022-09-18T03:08:52.341Z,33.90
2022-09-18T03:11:19.623Z,37.70
2022-09-18T03:13:46.768Z,41.30
2022-09-18T03:16:14.029Z,32.28
2022-09-18T03:18:41.393Z,35.28
2022-09-18T03:21:08.624Z,31.55
2022-09-18T03:23:35.865Z,41.72
2022-09-18T03:26:03.212Z,33.20
2022-09-18T03:28:33.706Z,34.83
2022-09-18T03:31:01.574Z,33.22
2022-09-18T03:33:28.896Z,34.35
2022-09-18T03:35:56.206Z,34.58
2022-09-18T03:38:23.355Z,36.72
2022-09-18T03:40:50.608Z,37.97
2022-09-18T03:43:18.419Z,38.30
2022-09-18T03:45:45.667Z,34.88
2022-09-18T03:48:12.868Z,37.58
2022-09-18T03:50:40.127Z,30.75
2022-09-18T03:53:09.118Z,32.03
2022-09-18T03:55:37.539Z,33.30
2022-09-18T03:58:08.181Z,30.60
2022-09-18T04:00:36.526Z,33.55
2022-09-18T04:03:04.090Z,33.17
2022-09-18T04:05:31.877Z,32.40
2022-09-18T04:07:59.708Z,30.83
2022-09-18T04:10:27.465Z,34.75
2022-09-18T04:12:55.489Z,33.42
2022-09-18T04:15:22.972Z,32.50
2022-09-18T04:17:50.958Z,40.05
2022-09-18T04:20:19.341Z,36.05
2022-09-18T04:22:46.499Z,39.33
2022-09-18T04:25:13.915Z,38.05
2022-09-18T04:27:41.235Z,36.47
2022-09-18T04:30:09.342Z,42.63
2022-09-18T04:32:36.580Z,40.53
2022-09-18T04:35:05.774Z,45.97
2022-09-18T04:37:33.648Z,36.85
2022-09-18T04:40:00.867Z,46.40
2022-09-18T04:42:28.564Z,41.97
2022-09-18T04:44:55.917Z,49.92
2022-09-18T04:47:23.148Z,48.75
2022-09-18T04:49:50.808Z,47.10
2022-09-18T04:52:19.382Z,44.15
2022-09-18T04:54:46.740Z,40.85
2022-09-18T04:57:13.962Z,46.67
2022-09-18T04:59:41.788Z,36.05
2022-09-18T05:02:09.104Z,35.72
2022-09-18T05:04:37.165Z,27.02
2022-09-18T05:07:06.987Z,27.55
2022-09-18T05:09:34.544Z,30.38
2022-09-18T05:12:08.095Z,28.67
2022-09-18T05:14:35.557Z,30.58
2022-09-18T05:17:02.967Z,25.08
2022-09-18T05:19:30.514Z,28.63
2022-09-18T05:21:58.025Z,25.02
2022-09-18T05:24:25.662Z,23.38
2022-09-18T05:26:52.886Z,24.70
2022-09-18T05:29:20.289Z,27.80
2022-09-18T05:31:47.881Z,29.92
2022-09-18T05:34:17.829Z,23.52
2022-09-18T05:36:47.936Z,30.80
2022-09-18T05:39:17.574Z,26.77
2022-09-18T05:41:51.450Z,26.63
2022-09-18T05:44:20.155Z,26.50
2022-09-18T05:46:48.489Z,25.42
2022-09-18T05:49:17.470Z,23.90
2022-09-18T05:52:15.180Z,25.52
2022-09-18T05:54:42.815Z,23.40
2022-09-18T05:57:10.079Z,20.42
2022-09-18T05:59:37.433Z,21.52
2022-09-18T06:02:08.934Z,19.42
2022-09-18T06:04:36.446Z,21.90
2022-09-18T06:07:04.475Z,21.40
2022-09-18T06:09:32.146Z,18.27
2022-09-18T06:11:59.455Z,21.90
2022-09-18T06:14:27.207Z,20.80
2022-09-18T06:16:55.630Z,21.88
2022-09-18T06:19:22.719Z,17.40
2022-09-18T06:21:51.342Z,18.55
2022-09-18T06:24:18.781Z,17.63
2022-09-18T06:26:52.202Z,19.95
2022-09-18T06:29:19.577Z,18.80
2022-09-18T06:31:46.867Z,16.52
2022-09-18T06:34:22.743Z,21.65
2022-09-18T06:36:52.281Z,13.63
2022-09-18T06:39:21.495Z,15.98
2022-09-18T06:41:49.717Z,15.45
2022-09-18T06:44:16.995Z,13.05
2022-09-18T06:46:44.417Z,13.38
2022-09-18T06:49:12.708Z,12.20
2022-09-18T06:51:40.754Z,14.15
2022-09-18T06:54:07.937Z,12.13
2022-09-18T06:56:35.374Z,17.42
2022-09-18T06:59:02.795Z,12.45
2022-09-18T07:01:30.404Z,12.40
2022-09-18T07:03:57.612Z,14.05
2022-09-18T07:06:24.815Z,11.32
2022-09-18T07:08:53.517Z,13.55
2022-09-18T07:11:20.989Z,11.18
2022-09-18T07:13:48.469Z,13.60
2022-09-18T07:16:16.099Z,12.45
2022-09-18T07:18:46.119Z,8.52
2022-09-18T07:21:13.407Z,11.25
2022-09-18T07:23:40.604Z,12.80
2022-09-18T07:26:07.799Z,9.70
2022-09-18T07:28:35.035Z,11.15
2022-09-18T07:31:04.041Z,12.15
2022-09-18T07:33:32.492Z,10.75
2022-09-18T07:36:00.922Z,9.82
2022-09-18T07:38:28.342Z,9.48
2022-09-18T07:40:55.591Z,12.52
2022-09-18T07:43:23.024Z,13.80
2022-09-18T07:45:50.160Z,10.25
2022-09-18T07:48:18.039Z,10.20
2022-09-18T07:50:46.543Z,16.13
2022-09-18T07:53:13.829Z,10.63
2022-09-18T07:55:45.337Z,8.88
2022-09-18T07:58:12.896Z,8.77
2022-09-18T08:00:40.727Z,10.25
2022-09-18T08:03:11.812Z,11.00
2022-09-18T08:05:40.420Z,11.35
2022-09-18T08:08:10.159Z,9.38
2022-09-18T08:10:37.444Z,10.18
2022-09-18T08:13:05.539Z,8.02
2022-09-18T08:15:34.080Z,9.82
2022-09-18T08:18:01.338Z,9.13
2022-09-18T08:20:28.728Z,8.73
2022-09-18T08:22:55.992Z,12.50
2022-09-18T08:25:23.294Z,7.10
2022-09-18T08:27:50.551Z,10.27
2022-09-18T08:30:17.962Z,8.27
2022-09-18T08:32:45.316Z,6.85
2022-09-18T08:35:12.672Z,7.00
2022-09-18T08:37:47.411Z,9.25
2022-09-18T08:40:16.723Z,6.82
2022-09-18T08:43:12.385Z,40.17
2022-09-18T08:46:06.144Z,7.75
2022-09-18T08:48:36.973Z,7.25
2022-09-18T08:51:18.673Z,5.78
2022-09-18T08:53:50.976Z,8.88
2022-09-18T08:56:23.900Z,7.93
2022-09-18T08:59:33.094Z,6.22
2022-09-18T09:02:45.392Z,6.03
2022-09-18T09:05:15.269Z,5.72
2022-09-18T09:08:04.027Z,4.63
2022-09-18T09:11:01.958Z,6.93
2022-09-18T09:14:05.303Z,5.55
2022-09-18T09:16:44.572Z,5.00
2022-09-18T09:19:23.732Z,5.30
2022-09-18T09:22:10.845Z,5.28
2022-09-18T09:25:07.558Z,7.03
2022-09-18T09:27:45.207Z,7.57
2022-09-18T09:30:21.452Z,5.93
2022-09-18T09:33:21.687Z,3.35
2022-09-18T09:35:51.952Z,5.43
2022-09-18T09:38:40.495Z,8.90
2022-09-18T09:50:36.695Z,4.80
2022-09-18T09:53:07.355Z,6.32
2022-09-18T09:55:44.620Z,5.43
2022-09-18T09:58:34.179Z,5.28
2022-09-18T10:01:15.566Z,4.60
2022-09-18T10:03:55.379Z,8.88
2022-09-18T10:06:41.010Z,4.10
2022-09-18T10:09:19.687Z,8.52
2022-09-18T10:12:19.146Z,11.63
2022-09-18T10:14:48.472Z,3.45
2022-09-18T10:17:18.774Z,5.82
2022-09-18T10:19:46.947Z,5.07
2022-09-18T10:22:17.843Z,6.15
2022-09-18T10:24:55.699Z,3.75
2022-09-18T10:27:23.466Z,8.98
2022-09-18T10:29:54.139Z,6.55
2022-09-18T10:32:33.748Z,5.97
2022-09-18T10:35:01.124Z,10.98
2022-09-18T10:37:28.328Z,5.45
2022-09-18T10:40:00.159Z,6.15
2022-09-18T10:42:29.039Z,15.70
2022-09-18T10:45:01.729Z,5.22
2022-09-18T10:47:32.451Z,8.32
2022-09-18T10:50:06.408Z,7.85
2022-09-18T10:52:43.815Z,6.95
2022-09-18T10:55:16.742Z,6.72
2022-09-18T10:57:49.997Z,5.10
2022-09-18T11:00:20.214Z,6.55
2022-09-18T11:02:50.215Z,3.70
2022-09-18T11:05:53.909Z,4.28
2022-09-18T11:08:25.165Z,3.70
2022-09-18T11:11:00.458Z,8.02
2022-09-18T11:13:28.939Z,4.38
2022-09-18T11:16:02.375Z,3.58
2022-09-18T11:18:31.580Z,5.18
2022-09-18T11:21:03.039Z,4.57
2022-09-18T11:23:32.490Z,5.50
2022-09-18T11:26:12.321Z,4.85
2022-09-18T11:28:41.862Z,5.57
2022-09-18T11:31:18.803Z,8.73
2022-09-18T11:33:51.952Z,7.88
2022-09-18T11:36:32.050Z,3.33
2022-09-18T11:39:00.524Z,6.78
2022-09-18T11:41:35.266Z,3.05
2022-09-18T11:44:14.975Z,6.05
2022-09-18T11:47:18.240Z,2.97
2022-09-18T11:49:50.653Z,5.90
2022-09-18T11:52:44.178Z,2.65
2022-09-18T11:55:16.581Z,4.70
2022-09-18T11:58:00.268Z,5.35
2022-09-18T12:00:36.545Z,5.63
2022-09-18T12:03:22.980Z,7.00
2022-09-18T12:06:01.088Z,5.07
2022-09-18T12:09:15.504Z,4.53
2022-09-18T12:11:57.059Z,4.85
2022-09-18T12:14:32.410Z,7.60
2022-09-18T12:17:13.011Z,6.07
2022-09-18T12:19:41.104Z,5.55
2022-09-18T12:22:31.398Z,8.50
2022-09-18T12:24:58.874Z,5.07
2022-09-18T12:27:46.331Z,6.28
2022-09-18T12:30:20.203Z,3.30
2022-09-18T12:33:13.255Z,7.88
2022-09-18T12:36:21.562Z,8.77
2022-09-18T12:39:20.665Z,4.18
2022-09-18T12:41:56.177Z,6.85
2022-09-18T12:44:57.927Z,6.13
2022-09-18T12:47:57.371Z,4.40
2022-09-18T12:50:46.174Z,4.57
2022-09-18T12:53:26.628Z,3.83
2022-09-18T12:56:06.825Z,5.28
2022-09-18T12:58:49.820Z,8.00
2022-09-18T13:01:31.719Z,4.32
2022-09-18T13:04:25.612Z,7.03
2022-09-18T13:07:01.265Z,4.05
2022-09-18T13:09:39.287Z,6.70
2022-09-18T13:12:21.467Z,8.82
2022-09-18T13:14:53.972Z,9.70
2022-09-18T13:17:30.918Z,6.43
2022-09-18T13:20:14.091Z,8.05
2022-09-18T13:22:46.115Z,5.43
2022-09-18T13:25:34.464Z,7.32
2022-09-18T13:28:06.475Z,5.20
2022-09-18T13:30:34.334Z,4.32
2022-09-18T13:33:02.744Z,7.10
2022-09-18T13:35:35.500Z,4.40
2022-09-18T13:38:08.904Z,3.67
2022-09-18T13:40:42.800Z,8.35
2022-09-18T13:43:28.475Z,4.15
2022-09-18T13:46:06.084Z,5.28
2022-09-18T13:48:46.525Z,5.00
2022-09-18T13:51:36.188Z,3.42
2022-09-18T13:54:22.346Z,9.00
2022-09-18T13:57:11.468Z,2.75
2022-09-18T13:59:53.514Z,4.53
2022-09-18T14:02:24.188Z,9.18
2022-09-18T14:04:57.555Z,5.15
2022-09-18T14:07:24.829Z,4.47
2022-09-18T14:10:05.841Z,3.10
2022-09-18T14:12:35.126Z,2.70
2022-09-18T14:15:22.922Z,4.20
2022-09-18T14:18:27.320Z,4.78
2022-09-18T14:21:17.774Z,5.18
2022-09-18T14:23:48.086Z,5.88
2022-09-18T14:26:30.490Z,6.90
2022-09-18T14:29:11.570Z,6.30
2022-09-18T14:31:45.359Z,8.00
2022-09-18T14:34:21.624Z,16.45
2022-09-18T14:36:51.135Z,5.30
2022-09-18T14:39:32.711Z,3.53
2022-09-18T14:42:06.927Z,5.13
2022-09-18T14:44:36.921Z,5.90
2022-09-18T14:47:06.531Z,6.22
2022-09-18T14:50:04.598Z,3.58
2022-09-18T14:56:06.694Z,5.47
2022-09-18T14:58:37.164Z,3.63
2022-09-18T15:01:21.259Z,8.73
2022-09-18T15:03:50.440Z,3.65
2022-09-18T15:06:21.551Z,4.00
2022-09-18T15:08:51.593Z,10.48
2022-09-18T15:11:21.130Z,9.68
2022-09-18T15:13:51.312Z,6.55
2022-09-18T15:16:29.214Z,4.32
2022-09-18T15:18:57.761Z,6.07
2022-09-18T15:21:33.743Z,7.13
2022-09-18T15:24:02.706Z,6.93
2022-09-18T15:26:33.835Z,4.40
2022-09-18T15:29:02.744Z,6.00
2022-09-18T15:31:31.861Z,6.55
2022-09-18T15:34:04.979Z,6.43
2022-09-18T15:36:35.252Z,5.00
2022-09-18T15:39:05.209Z,5.18
2022-09-18T15:41:43.478Z,7.28
2022-09-18T15:44:38.948Z,3.83
2022-09-18T15:47:28.397Z,4.78
2022-09-18T15:49:56.938Z,5.35
2022-09-18T15:52:58.229Z,3.38
2022-09-18T15:55:31.912Z,5.20
2022-09-18T15:58:00.308Z,4.45
2022-09-18T16:00:34.335Z,5.13
2022-09-18T16:09:25.041Z,12.85
2022-09-18T16:11:53.142Z,7.95
2022-09-18T16:14:39.979Z,5.43
2022-09-18T16:17:29.128Z,3.13
2022-09-18T16:19:57.962Z,2.38
2022-09-18T16:22:29.644Z,15.75
2022-09-18T16:24:59.876Z,8.98
2022-09-18T16:27:27.697Z,5.15
2022-09-18T16:29:55.062Z,10.38
2022-09-18T16:32:22.359Z,6.22
2022-09-18T16:34:49.631Z,19.30
2022-09-18T16:37:17.948Z,2.65
2022-09-18T16:39:45.317Z,5.50
2022-09-18T16:42:18.841Z,7.78
2022-09-18T16:44:46.413Z,4.28
2022-09-18T16:47:15.375Z,5.20
2022-09-18T16:49:46.256Z,6.40
2022-09-18T16:52:13.922Z,3.47
2022-09-18T16:54:41.148Z,6.30
2022-09-18T16:57:13.135Z,5.05
2022-09-18T16:59:42.477Z,11.68
2022-09-18T17:02:10.910Z,7.53
2022-09-18T17:04:38.266Z,5.00
2022-09-18T17:07:06.586Z,6.22
2022-09-18T17:09:33.969Z,4.72
2022-09-18T17:12:01.785Z,8.32
2022-09-18T17:14:29.290Z,7.15
2022-09-18T17:16:56.792Z,5.70
2022-09-18T17:19:24.055Z,3.05
2022-09-18T17:21:51.411Z,6.63
2022-09-18T17:24:24.139Z,6.28
2022-09-18T17:26:53.997Z,3.20
2022-09-18T17:29:21.322Z,15.10
2022-09-18T17:31:48.663Z,4.32
2022-09-18T17:34:16.763Z,3.35
2022-09-18T17:36:47.655Z,3.95
2022-09-18T17:39:17.197Z,6.47
2022-09-18T17:41:45.947Z,1.83
2022-09-18T17:44:15.135Z,3.20
2022-09-18T17:46:42.614Z,4.18
2022-09-18T17:49:29.701Z,3.35
2022-09-18T17:51:57.881Z,2.83
2022-09-18T17:54:25.394Z,2.92
2022-09-18T17:56:52.617Z,4.38
2022-09-18T17:59:20.005Z,6.25
2022-09-18T18:01:49.063Z,2.88
2022-09-18T18:04:16.505Z,2.38
2022-09-18T18:06:48.095Z,2.80
2022-09-18T18:09:16.319Z,1.92
2022-09-18T18:11:46.540Z,1.50
2022-09-18T18:14:17.185Z,4.32
2022-09-18T18:16:44.933Z,3.92
2022-09-18T18:19:12.919Z,5.75
2022-09-18T18:21:41.728Z,1.98
2022-09-18T18:24:14.980Z,1.00
2022-09-18T18:26:48.455Z,1.20
2022-09-18T18:29:18.540Z,3.45
2022-09-18T18:31:48.279Z,1.40
2022-09-18T18:34:23.063Z,3.65
2022-09-18T18:36:50.911Z,6.80
2022-09-18T18:39:20.170Z,0.60
2022-09-18T18:41:50.407Z,2.33
2022-09-18T18:44:18.424Z,3.08
2022-09-18T18:46:50.180Z,5.55
2022-09-18T18:49:19.002Z,1.52
2022-09-18T18:51:47.941Z,0.68
2022-09-18T18:54:17.962Z,1.08
2022-09-18T18:56:46.354Z,5.97
2022-09-18T18:59:16.631Z,0.93
2022-09-18T19:01:44.565Z,0.50
2022-09-18T19:04:14.314Z,0.43
2022-09-18T19:06:43.666Z,1.40
2022-09-18T19:09:18.089Z,0.60
2022-09-18T19:11:49.692Z,1.60
2022-09-18T19:14:20.121Z,2.05
2022-09-18T19:16:48.887Z,4.03
2022-09-18T19:19:17.669Z,3.15
2022-09-18T19:21:45.031Z,0.98
2022-09-18T19:24:13.693Z,0.98
2022-09-18T19:26:43.379Z,3.17
2022-09-18T19:29:16.027Z,5.07
2022-09-18T19:31:44.839Z,3.72
2022-09-18T19:34:14.507Z,2.88
2022-09-18T19:36:44.170Z,5.40
2022-09-18T19:39:13.114Z,3.78
2022-09-18T19:41:46.692Z,2.08
2022-09-18T19:44:31.360Z,2.35
2022-09-18T19:47:02.391Z,2.97
2022-09-18T19:49:34.992Z,2.33
2022-09-18T19:52:03.288Z,5.57
2022-09-18T19:54:31.212Z,4.07
2022-09-18T19:56:59.218Z,4.97
2022-09-18T19:59:26.459Z,0.40
2022-09-18T20:01:55.482Z,5.03
2022-09-18T20:04:22.752Z,4.10
2022-09-18T20:06:49.968Z,3.10
2022-09-18T20:09:17.317Z,0.40
2022-09-18T20:11:48.125Z,0.43
2022-09-18T20:14:16.272Z,2.03
2022-09-18T20:16:43.652Z,10.30
2022-09-18T20:19:12.556Z,3.35
2022-09-18T20:21:39.875Z,1.25
2022-09-18T20:24:10.080Z,4.07
2022-09-18T20:26:37.696Z,1.35
2022-09-18T20:29:04.925Z,0.85
2022-09-18T20:31:32.833Z,2.28
2022-09-18T20:34:00.335Z,1.80
2022-09-18T20:36:28.680Z,0.40
2022-09-18T20:38:58.051Z,0.93
2022-09-18T20:41:30.016Z,2.15
2022-09-18T20:44:03.016Z,1.50
2022-09-18T20:46:36.950Z,1.73
2022-09-18T20:49:05.216Z,5.47
2022-09-18T20:51:36.629Z,5.07
2022-09-18T20:54:08.328Z,1.85
2022-09-18T20:56:42.051Z,3.40
2022-09-18T20:59:13.118Z,1.45
2022-09-18T21:01:41.992Z,2.58
2022-09-18T21:04:17.124Z,2.80
2022-09-18T21:06:47.056Z,1.23
2022-09-18T21:09:15.354Z,0.30
2022-09-18T21:11:44.796Z,0.30
2022-09-18T21:14:17.906Z,1.25
2022-09-18T21:16:45.422Z,1.88
2022-09-18T21:19:19.359Z,0.88
2022-09-18T21:21:47.863Z,1.67
2022-09-18T21:24:16.093Z,0.73
2022-09-18T21:26:46.020Z,0.40
2022-09-18T21:29:13.114Z,0.30
2022-09-18T21:31:44.636Z,0.32
2022-09-18T21:34:13.400Z,0.30
2022-09-18T21:36:43.393Z,0.38
2022-09-18T21:39:12.544Z,0.63
2022-09-18T21:41:42.135Z,2.05
2022-09-18T21:44:13.495Z,0.47
2022-09-18T21:46:42.005Z,1.65
2022-09-18T21:49:10.373Z,2.00
2022-09-18T21:51:42.308Z,6.13
2022-09-18T21:54:14.778Z,3.60
2022-09-18T21:56:42.748Z,2.55
2022-09-18T21:59:10.683Z,1.50
2022-09-18T22:01:38.307Z,0.40
2022-09-18T22:04:07.238Z,0.68
2022-09-18T22:06:42.022Z,1.33
2022-09-18T22:09:18.422Z,0.40
2022-09-18T22:11:48.626Z,0.75
2022-09-18T22:14:18.219Z,0.70
2022-09-18T22:16:48.574Z,1.95
2022-09-18T22:19:17.035Z,2.72
2022-09-18T22:21:46.621Z,2.15
2022-09-18T22:24:19.305Z,1.95
2022-09-18T22:26:49.001Z,4.10
2022-09-18T22:29:18.720Z,3.00
2022-09-18T22:31:46.754Z,2.30
2022-09-18T22:34:16.133Z,0.60
2022-09-18T22:36:44.387Z,1.88
2022-09-18T22:39:12.929Z,0.90
2022-09-18T22:41:40.653Z,1.75
2022-09-18T22:44:08.442Z,1.10
2022-09-18T22:46:37.644Z,1.42
2022-09-18T22:49:06.044Z,0.82
2022-09-18T22:51:33.280Z,0.45
2022-09-18T22:54:07.507Z,3.65
2022-09-18T22:56:40.889Z,0.50
2022-09-18T22:59:09.860Z,10.70
2022-09-18T23:01:46.492Z,8.68
2022-09-18T23:04:14.391Z,2.28
2022-09-18T23:06:42.736Z,2.28
2022-09-18T23:09:10.458Z,0.73
2022-09-18T23:11:37.872Z,0.82
2022-09-18T23:14:07.017Z,0.50
2022-09-18T23:16:36.232Z,0.40
2022-09-18T23:19:06.455Z,0.50
2022-09-18T23:21:34.880Z,0.98
2022-09-18T23:24:09.161Z,5.28
2022-09-18T23:26:41.913Z,10.18
2022-09-18T23:29:12.178Z,1.80
2022-09-18T23:31:42.342Z,0.60
2022-09-18T23:34:14.572Z,2.95
2022-09-18T23:36:47.452Z,1.40
2022-09-18T23:39:22.475Z,0.80
2022-09-18T23:41:50.793Z,3.03
2022-09-18T23:44:19.999Z,1.88
2022-09-18T23:46:47.711Z,0.55
2022-09-18T23:49:16.222Z,9.40
2022-09-18T23:51:48.325Z,6.70
2022-09-18T23:54:26.050Z,1.85
2022-09-18T23:56:54.678Z,1.55
2022-09-18T23:59:23.466Z,1.77
